Time;durP1;ratioP1;P1;durP2;ratioP2;P2;SDS_P1;SDS_P2;PMS_P1;PMS_P2;Temp;Humidity;BMP_temperature;BMP_pressure;BME280_temperature;BME280_humidity;BME280_pressure;Samples;Min_cycle;Max_cycle;Signal;HPM_P1;HPM_P2
2023/03/01 00:01:12;;;;;;;19.80;13.00;;;;;;;-2.16;74.38;96205.50;5010339;28;20171;-76
2023/03/01 00:03:37;;;;;;;21.20;14.03;;;;;;;-2.15;74.23;96209.72;5015077;28;20191;-76
2023/03/01 00:06:03;;;;;;;21.40;13.70;;;;;;;-2.22;74.39;96199.81;5020840;28;20780;-76
2023/03/01 00:08:29;;;;;;;22.77;13.20;;;;;;;-2.25;74.36;96213.47;5027972;28;20194;-76
2023/03/01 00:11:17;;;;;;;19.63;13.23;;;;;;;-2.24;74.50;96211.75;5030822;28;20781;-76
2023/03/01 00:13:44;;;;;;;20.30;13.50;;;;;;;-2.37;75.23;96211.38;5022660;28;20208;-76
2023/03/01 00:16:12;;;;;;;21.57;13.60;;;;;;;-2.33;74.56;96206.09;5006605;28;20202;-76
2023/03/01 00:18:37;;;;;;;19.33;13.03;;;;;;;-2.33;75.03;96213.75;5020844;28;20186;-76
2023/03/01 00:21:03;;;;;;;22.73;13.70;;;;;;;-2.35;74.77;96214.69;5032098;28;20186;-76
2023/03/01 00:23:28;;;;;;;18.60;13.47;;;;;;;-2.50;75.99;96213.50;5018988;28;20194;-76
2023/03/01 00:25:54;;;;;;;28.90;15.50;;;;;;;-2.44;75.59;96215.00;5023673;28;20202;-76
2023/03/01 00:28:20;;;;;;;21.77;13.70;;;;;;;-2.49;75.94;96212.59;5014383;28;20218;-77
2023/03/01 00:30:46;;;;;;;22.23;13.73;;;;;;;-2.46;75.49;96216.78;5002153;28;20203;-76
2023/03/01 00:33:11;;;;;;;22.20;14.33;;;;;;;-2.42;75.12;96210.69;5008044;28;20206;-77
2023/03/01 00:35:37;;;;;;;19.60;13.70;;;;;;;-2.44;75.35;96215.84;5014048;28;20207;-77
2023/03/01 00:38:03;;;;;;;23.53;13.80;;;;;;;-2.50;76.17;96210.94;4999895;28;20171;-76
2023/03/01 00:40:29;;;;;;;22.80;13.50;;;;;;;-2.41;75.43;96215.72;5036992;28;20194;-76
2023/03/01 00:42:54;;;;;;;21.33;14.07;;;;;;;-2.61;76.40;96211.31;5016602;28;20191;-76
2023/03/01 00:45:20;;;;;;;21.20;14.27;;;;;;;-2.48;76.34;96213.44;5014980;28;20218;-75
2023/03/01 00:47:46;;;;;;;21.10;13.70;;;;;;;-2.44;75.51;96210.75;5028125;28;20194;-75
2023/03/01 00:50:11;;;;;;;20.27;14.30;;;;;;;-2.49;75.16;96204.16;5035410;28;20185;-76
2023/03/01 00:52:37;;;;;;;25.83;15.27;;;;;;;-2.58;76.43;96205.28;5023043;28;20221;-76
2023/03/01 00:55:04;;;;;;;22.97;14.13;;;;;;;-2.70;76.73;96198.91;5009627;28;20200;-76
2023/03/01 00:57:29;;;;;;;26.70;14.90;;;;;;;-2.51;76.21;96203.38;5020478;28;20214;-75
2023/03/01 00:59:54;;;;;;;21.80;14.60;;;;;;;-2.51;75.83;96205.91;5014581;28;20231;-76
2023/03/01 01:02:20;;;;;;;20.60;14.10;;;;;;;-2.48;76.12;96198.16;4995807;28;20186;-76
2023/03/01 01:04:46;;;;;;;19.47;13.53;;;;;;;-2.59;76.54;96204.47;5001628;28;20212;-76
2023/03/01 01:07:11;;;;;;;22.90;14.90;;;;;;;-2.60;76.65;96204.50;5019255;28;20373;-76
2023/03/01 01:09:37;;;;;;;23.87;15.27;;;;;;;-2.55;76.95;96192.50;5000417;28;20283;-76
2023/03/01 01:12:03;;;;;;;20.73;13.90;;;;;;;-2.48;76.01;96195.63;5013831;28;20707;-76
2023/03/01 01:14:28;;;;;;;23.37;14.33;;;;;;;-2.59;76.83;96196.00;5018796;28;20207;-76
2023/03/01 01:16:53;;;;;;;22.50;14.67;;;;;;;-2.43;75.88;96194.59;5017157;28;20252;-76
2023/03/01 01:19:19;;;;;;;25.40;14.83;;;;;;;-2.43;75.93;96189.50;5013047;28;20654;-76
2023/03/01 01:21:44;;;;;;;25.30;15.10;;;;;;;-2.45;75.79;96187.91;5016525;28;20179;-76
2023/03/01 01:24:10;;;;;;;23.07;14.30;;;;;;;-2.49;76.00;96196.50;5023039;28;20218;-76
2023/03/01 01:26:35;;;;;;;24.37;14.43;;;;;;;-2.58;76.98;96197.66;5024351;28;20589;-76
2023/03/01 01:29:03;;;;;;;22.80;14.73;;;;;;;-2.69;77.04;96189.56;5013994;28;20561;-75
2023/03/01 01:31:29;;;;;;;22.37;14.10;;;;;;;-2.73;77.13;96190.56;5027906;28;20245;-76
2023/03/01 01:33:55;;;;;;;19.63;13.73;;;;;;;-2.78;77.55;96188.16;5003785;28;20183;-76
2023/03/01 01:36:20;;;;;;;21.33;15.70;;;;;;;-2.84;77.55;96180.75;5011507;28;20194;-76
2023/03/01 01:38:46;;;;;;;22.87;14.10;;;;;;;-2.81;76.87;96174.75;5007150;28;20213;-75
2023/03/01 01:41:12;;;;;;;22.13;13.97;;;;;;;-2.92;77.96;96175.09;5021868;28;20232;-76
2023/03/01 01:43:43;;;;;;;23.67;15.57;;;;;;;-2.89;78.72;96169.91;5017049;28;20249;-75
2023/03/01 01:46:46;;;;;;;22.93;15.23;;;;;;;-2.82;77.67;96166.28;5016293;28;20202;-76
2023/03/01 01:49:19;;;;;;;21.90;14.33;;;;;;;-2.85;78.16;96163.84;5032688;28;20186;-75
2023/03/01 01:51:48;;;;;;;22.37;15.17;;;;;;;-2.86;78.06;96165.56;5014059;28;20214;-77
2023/03/01 01:54:28;;;;;;;21.90;15.13;;;;;;;-2.92;78.49;96167.47;5005900;28;20896;-76
2023/03/01 01:57:02;;;;;;;23.93;15.70;;;;;;;-2.91;78.96;96161.53;5028129;28;20206;-76
2023/03/01 01:59:28;;;;;;;24.07;15.70;;;;;;;-2.88;78.24;96157.16;5027234;28;20182;-75
2023/03/01 02:01:54;;;;;;;24.60;14.73;;;;;;;-2.86;78.50;96164.72;5012600;28;20659;-76
2023/03/01 02:04:20;;;;;;;23.90;15.80;;;;;;;-2.96;79.22;96154.03;5026762;28;20215;-76
2023/03/01 02:06:51;;;;;;;22.93;15.07;;;;;;;-2.99;78.98;96151.59;5027405;28;20176;-76
2023/03/01 02:09:18;;;;;;;23.80;15.37;;;;;;;-3.01;78.66;96140.63;5010782;28;20562;-77
2023/03/01 02:11:44;;;;;;;24.87;15.17;;;;;;;-3.04;78.76;96150.09;5025136;28;20318;-76
2023/03/01 02:14:09;;;;;;;23.27;15.57;;;;;;;-3.09;79.57;96142.63;5001791;28;20178;-77
2023/03/01 02:16:34;;;;;;;24.27;14.87;;;;;;;-3.05;79.62;96139.09;5022073;28;20193;-76
2023/03/01 02:19:00;;;;;;;24.50;15.17;;;;;;;-2.97;79.36;96141.38;5016162;28;20186;-76
2023/03/01 02:21:34;;;;;;;24.37;14.67;;;;;;;-3.01;78.85;96138.09;5013927;28;20643;-75
2023/03/01 02:24:06;;;;;;;21.47;14.60;;;;;;;-2.98;79.30;96135.47;5020209;28;20239;-76
2023/03/01 02:26:42;;;;;;;26.90;15.90;;;;;;;-3.08;79.28;96136.66;5010244;28;20639;-76
2023/03/01 02:29:08;;;;;;;23.83;15.63;;;;;;;-3.07;79.37;96127.34;5024148;28;20181;-76
2023/03/01 02:31:42;;;;;;;23.13;14.73;;;;;;;-3.04;79.41;96114.53;5001996;28;20620;-76
2023/03/01 02:34:11;;;;;;;24.20;15.23;;;;;;;-3.05;80.06;96112.88;4998654;28;20179;-76
2023/03/01 02:36:40;;;;;;;25.03;15.40;;;;;;;-3.08;78.80;96113.81;5024621;28;20190;-76
2023/03/01 02:39:07;;;;;;;25.00;15.73;;;;;;;-3.13;79.25;96111.41;5025173;28;20201;-76
2023/03/01 02:41:37;;;;;;;25.60;15.70;;;;;;;-3.17;79.79;96111.56;5024393;28;20167;-76
2023/03/01 02:44:03;;;;;;;27.60;16.20;;;;;;;-3.15;79.07;96103.00;5008005;28;20194;-76
2023/03/01 02:46:29;;;;;;;27.90;16.90;;;;;;;-3.16;79.70;96103.91;5015260;28;20194;-76
2023/03/01 02:48:57;;;;;;;24.13;16.10;;;;;;;-3.17;79.83;96098.88;5019690;28;20174;-77
2023/03/01 02:51:44;;;;;;;26.40;16.57;;;;;;;-3.17;79.81;96098.88;4999539;28;20199;-77
2023/03/01 02:54:23;;;;;;;23.87;14.97;;;;;;;-3.24;79.22;96093.16;5023764;28;20185;-76
2023/03/01 02:56:48;;;;;;;28.17;16.87;;;;;;;-3.28;80.23;96094.13;5036770;28;20185;-77
2023/03/01 02:59:16;;;;;;;24.70;16.10;;;;;;;-3.33;79.85;96092.63;5017002;28;20182;-77
2023/03/01 03:01:41;;;;;;;26.40;16.77;;;;;;;-3.39;79.53;96086.03;5015416;28;20190;-77
2023/03/01 03:04:10;;;;;;;24.37;15.80;;;;;;;-3.39;79.72;96093.66;5001649;28;20183;-76
2023/03/01 03:06:36;;;;;;;22.90;15.13;;;;;;;-3.44;79.53;96090.44;5031072;28;20580;-76
2023/03/01 03:09:01;;;;;;;28.63;16.37;;;;;;;-3.42;79.87;96093.75;5004246;28;20272;-76
2023/03/01 03:11:27;;;;;;;23.63;15.37;;;;;;;-3.38;80.23;96082.63;5000638;28;20293;-76
2023/03/01 03:13:53;;;;;;;25.77;16.00;;;;;;;-3.34;80.04;96086.72;5021461;28;20179;-77
2023/03/01 03:16:19;;;;;;;24.27;15.83;;;;;;;-3.31;79.28;96083.25;5015570;28;20186;-76
2023/03/01 03:18:44;;;;;;;28.67;16.83;;;;;;;-3.26;80.04;96083.94;5017042;28;20175;-77
2023/03/01 03:21:11;;;;;;;25.67;15.87;;;;;;;-3.19;79.66;96085.38;5019510;28;20539;-76
2023/03/01 03:23:36;;;;;;;25.10;15.93;;;;;;;-3.09;79.93;96075.72;5023648;28;20248;-77
2023/03/01 03:26:04;;;;;;;26.97;18.77;;;;;;;-3.05;79.02;96072.22;5013780;28;20207;-77
2023/03/01 03:28:30;;;;;;;23.73;15.87;;;;;;;-2.99;78.97;96066.94;5017226;28;20182;-77
2023/03/01 03:30:55;;;;;;;27.87;16.93;;;;;;;-2.95;79.80;96071.00;5019237;28;20253;-76
2023/03/01 03:33:21;;;;;;;23.83;15.57;;;;;;;-2.88;78.96;96058.03;5027482;28;20187;-77
2023/03/01 03:35:48;;;;;;;25.80;17.17;;;;;;;-2.89;79.31;96068.25;5025697;28;20226;-77
2023/03/01 03:38:15;;;;;;;26.43;17.23;;;;;;;-2.83;79.50;96062.94;5019065;28;20179;-77
2023/03/01 03:41:02;;;;;;;25.37;18.00;;;;;;;-2.80;79.37;96059.47;5030880;28;20270;-76
2023/03/01 03:43:28;;;;;;;26.40;16.77;;;;;;;-2.71;79.27;96056.59;5018161;28;20698;-76
2023/03/01 03:45:53;;;;;;;26.10;16.77;;;;;;;-2.80;79.12;96064.56;5024719;28;20195;-76
2023/03/01 03:48:19;;;;;;;29.13;17.20;;;;;;;-2.76;79.04;96063.56;5020009;28;20190;-76
2023/03/01 03:50:53;;;;;;;29.07;17.50;;;;;;;-2.60;78.75;96057.88;5022330;28;20194;-76
2023/03/01 03:53:19;;;;;;;28.43;17.13;;;;;;;-2.61;78.50;96057.94;5019588;28;20214;-76
2023/03/01 03:55:44;;;;;;;25.73;17.13;;;;;;;-2.58;78.65;96053.53;5017108;28;20209;-76
2023/03/01 03:58:10;;;;;;;26.67;17.10;;;;;;;-2.50;78.29;96055.81;5015963;28;20541;-75
2023/03/01 04:00:38;;;;;;;26.50;17.80;;;;;;;-2.52;78.62;96051.69;4996653;28;20191;-75
2023/03/01 04:03:04;;;;;;;29.03;16.93;;;;;;;-2.49;78.32;96046.47;5027232;28;20179;-76
2023/03/01 04:05:29;;;;;;;27.67;17.27;;;;;;;-2.45;78.13;96045.50;5002675;28;20708;-76
2023/03/01 04:08:00;;;;;;;28.00;16.60;;;;;;;-2.47;78.36;96040.47;5043113;28;20260;-76
2023/03/01 04:10:27;;;;;;;26.87;17.37;;;;;;;-2.44;78.24;96039.50;5024709;28;20196;-75
2023/03/01 04:12:52;;;;;;;24.87;16.93;;;;;;;-2.40;78.30;96036.78;5019794;28;20636;-76
2023/03/01 04:15:18;;;;;;;26.80;16.77;;;;;;;-2.41;78.28;96032.59;5020549;28;20203;-76
2023/03/01 04:17:45;;;;;;;27.57;17.87;;;;;;;-2.36;77.93;96038.34;5013189;28;20184;-76
2023/03/01 04:20:24;;;;;;;26.50;17.67;;;;;;;-2.42;77.70;96037.72;5016488;28;20191;-75
2023/03/01 04:22:57;;;;;;;29.07;17.67;;;;;;;-2.46;78.31;96031.13;5000539;28;20294;-77
2023/03/01 04:25:22;;;;;;;29.60;18.90;;;;;;;-2.42;78.00;96035.19;5024456;28;20207;-75
2023/03/01 04:27:48;;;;;;;23.37;16.97;;;;;;;-2.37;78.15;96030.78;5016818;28;20642;-77
2023/03/01 04:30:13;;;;;;;27.83;17.43;;;;;;;-2.38;78.19;96031.66;5019344;28;20680;-76
2023/03/01 04:32:38;;;;;;;27.33;17.40;;;;;;;-2.37;77.87;96034.13;5015805;28;20656;-76
2023/03/01 04:35:04;;;;;;;25.57;17.27;;;;;;;-2.40;78.08;96025.78;5012001;28;20222;-77
2023/03/01 04:37:29;;;;;;;30.20;18.03;;;;;;;-2.30;78.49;96024.53;5011816;28;20187;-77
2023/03/01 04:39:55;;;;;;;29.30;17.90;;;;;;;-2.24;77.82;96021.78;5016701;28;20187;-76
2023/03/01 04:42:20;;;;;;;26.73;17.35;;;;;;;-2.24;77.67;96020.94;4976961;28;1016909;-77
2023/03/01 04:44:45;;;;;;;28.90;18.20;;;;;;;-2.26;78.05;96023.56;4997929;28;20690;-77
2023/03/01 04:47:11;;;;;;;28.10;18.07;;;;;;;-2.27;78.21;96024.44;5017744;28;20180;-76
2023/03/01 04:49:36;;;;;;;27.37;17.90;;;;;;;-2.32;77.68;96029.69;5022074;28;20192;-76
2023/03/01 04:52:03;;;;;;;25.77;17.20;;;;;;;-2.27;77.85;96029.53;5014506;28;20226;-76
2023/03/01 04:54:29;;;;;;;28.33;18.57;;;;;;;-2.25;77.90;96034.56;5002656;28;20203;-76
2023/03/01 04:56:54;;;;;;;27.73;18.23;;;;;;;-2.25;78.21;96039.63;5017555;28;20556;-77
2023/03/01 04:59:22;;;;;;;29.20;19.03;;;;;;;-2.28;78.36;96038.88;5023664;28;20197;-77
2023/03/01 05:01:48;;;;;;;30.23;18.17;;;;;;;-2.25;78.17;96037.09;5016146;28;20183;-76
2023/03/01 05:04:13;;;;;;;28.30;18.23;;;;;;;-2.23;77.97;96038.69;5019363;28;20257;-76
2023/03/01 05:06:39;;;;;;;28.63;18.50;;;;;;;-2.23;78.46;96035.31;5016911;28;20594;-77
2023/03/01 05:09:04;;;;;;;26.47;17.30;;;;;;;-2.25;78.60;96035.38;5022324;28;20193;-77
2023/03/01 05:11:33;;;;;;;25.60;18.23;;;;;;;-2.14;78.29;96040.06;5025188;28;20203;-76
2023/03/01 05:13:58;;;;;;;31.50;19.47;;;;;;;-2.18;78.14;96026.63;5005347;28;20179;-77
2023/03/01 05:16:24;;;;;;;30.40;18.13;;;;;;;-2.18;78.41;96026.63;5018362;28;20723;-77
2023/03/01 05:18:50;;;;;;;28.03;17.80;;;;;;;-2.08;77.85;96029.66;5013641;28;20189;-76
2023/03/01 05:21:16;;;;;;;27.93;17.90;;;;;;;-2.11;77.67;96027.22;5017475;28;20247;-76
2023/03/01 05:23:41;;;;;;;28.10;17.40;;;;;;;-2.14;77.81;96024.78;5015266;28;20209;-76
2023/03/01 05:26:07;;;;;;;29.27;18.10;;;;;;;-2.12;77.95;96023.88;5008121;28;20207;-77
2023/03/01 05:28:33;;;;;;;30.57;19.43;;;;;;;-2.16;77.81;96027.41;5027888;28;20245;-77
2023/03/01 05:30:59;;;;;;;30.03;18.93;;;;;;;-2.14;77.93;96025.63;5020277;28;20253;-76
2023/03/01 05:33:25;;;;;;;30.73;19.13;;;;;;;-2.12;77.84;96026.41;5018438;28;20230;-77
2023/03/01 05:35:51;;;;;;;28.47;18.20;;;;;;;-2.11;77.59;96028.06;5007152;28;20207;-76
2023/03/01 05:38:17;;;;;;;28.27;18.77;;;;;;;-2.08;77.77;96022.84;5017586;28;20183;-76
2023/03/01 05:40:43;;;;;;;30.60;18.90;;;;;;;-2.02;77.50;96037.06;4998611;28;20690;-76
2023/03/01 05:43:09;;;;;;;33.07;19.17;;;;;;;-2.08;77.42;96025.38;5010331;28;20198;-76
2023/03/01 05:45:36;;;;;;;43.13;26.07;;;;;;;-2.03;77.76;96020.97;5013262;28;20203;-76
2023/03/01 05:48:02;;;;;;;34.73;20.33;;;;;;;-2.12;77.86;96028.09;5018241;28;20684;-76
2023/03/01 05:50:29;;;;;;;41.63;24.77;;;;;;;-2.16;77.97;96029.13;5012034;28;20198;-77
2023/03/01 05:53:11;;;;;;;31.07;19.37;;;;;;;-2.14;78.44;96025.63;5013321;28;20211;-76
2023/03/01 05:55:36;;;;;;;29.83;18.83;;;;;;;-2.17;78.74;96030.84;5016341;28;20296;-76
2023/03/01 05:58:05;;;;;;;30.57;19.20;;;;;;;-2.23;78.35;96028.50;4998885;28;20251;-77
2023/03/01 06:00:30;;;;;;;31.07;19.13;;;;;;;-2.12;77.90;96026.41;5013424;28;20228;-76
2023/03/01 06:02:57;;;;;;;30.63;18.63;;;;;;;-2.12;77.59;96023.88;5021859;28;20651;-76
2023/03/01 06:05:22;;;;;;;30.27;19.00;;;;;;;-2.13;78.08;96024.72;5026323;28;20214;-77
2023/03/01 06:07:48;;;;;;;26.50;17.57;;;;;;;-2.17;77.77;96024.91;5019142;28;20187;-76
2023/03/01 06:10:13;;;;;;;25.47;17.67;;;;;;;-2.24;78.30;96031.13;5015530;28;20235;-76
2023/03/01 06:12:40;;;;;;;26.27;18.03;;;;;;;-2.21;77.86;96019.09;5002942;28;20207;-76
2023/03/01 06:15:09;;;;;;;30.97;18.70;;;;;;;-2.25;78.00;96019.28;5018996;28;20258;-77
2023/03/01 06:17:37;;;;;;;29.43;18.63;;;;;;;-2.32;77.73;96019.50;5010648;28;20219;-77
2023/03/01 06:20:24;;;;;;;27.47;18.20;;;;;;;-2.41;78.60;96014.78;5024448;28;20183;-78
2023/03/01 06:22:49;;;;;;;27.80;18.27;;;;;;;-2.48;78.75;96027.78;5025936;28;20293;-77
2023/03/01 06:25:17;;;;;;;26.47;18.00;;;;;;;-2.45;78.60;96018.34;5019632;28;20571;-77
2023/03/01 06:27:43;;;;;;;28.77;18.87;;;;;;;-2.35;78.21;96022.19;5014238;28;20191;-76
2023/03/01 06:30:11;;;;;;;31.40;18.27;;;;;;;-2.25;78.18;96021.84;5009929;28;20238;-77
2023/03/01 06:32:37;;;;;;;27.47;17.90;;;;;;;-2.38;78.32;96024.03;5009535;28;20234;-77
2023/03/01 06:35:03;;;;;;;31.13;19.23;;;;;;;-2.34;78.65;96033.19;5003925;28;20709;-77
2023/03/01 06:37:29;;;;;;;27.57;19.20;;;;;;;-2.23;78.47;96028.50;5016443;28;20222;-76
2023/03/01 06:39:54;;;;;;;30.23;18.30;;;;;;;-2.49;78.96;96026.13;5035906;28;20292;-77
2023/03/01 06:42:19;;;;;;;27.70;18.73;;;;;;;-2.35;78.50;96032.34;5022327;28;20186;-76
2023/03/01 06:44:45;;;;;;;28.73;17.83;;;;;;;-2.33;78.57;96019.59;5018633;28;20210;-77
2023/03/01 06:47:11;;;;;;;30.80;18.23;;;;;;;-2.15;77.90;96023.97;5018258;28;20248;-77
2023/03/01 06:49:36;;;;;;;32.60;19.17;;;;;;;-2.25;77.77;96015.03;5027094;28;20183;-78
2023/03/01 06:52:01;;;;;;;30.47;18.50;;;;;;;-2.15;77.66;96016.31;5016866;28;20218;-77
2023/03/01 06:54:27;;;;;;;34.97;19.83;;;;;;;-2.01;77.36;96018.34;5020245;28;20210;-77
2023/03/01 06:56:52;;;;;;;27.53;18.57;;;;;;;-2.06;77.04;96023.59;5010891;28;20669;-76
2023/03/01 06:59:18;;;;;;;27.73;18.10;;;;;;;-2.13;77.01;96017.09;5007433;28;20187;-78
2023/03/01 07:01:43;;;;;;;28.20;17.77;;;;;;;-1.98;77.11;96009.75;5017480;28;20202;-78
2023/03/01 07:04:09;;;;;;;30.93;18.30;;;;;;;-1.96;76.45;96008.78;5027476;28;20189;-78
2023/03/01 07:06:34;;;;;;;28.00;17.80;;;;;;;-1.88;76.18;96011.03;5021086;28;20205;-78
2023/03/01 07:09:00;;;;;;;29.07;19.40;;;;;;;-1.62;75.64;96004.91;5034725;28;20187;-78
2023/03/01 07:11:25;;;;;;;29.00;18.90;;;;;;;-1.54;75.73;96001.16;5013576;28;20322;-78
2023/03/01 07:13:50;;;;;;;32.87;19.60;;;;;;;-1.42;74.97;95995.53;5031074;28;20183;-77
2023/03/01 07:16:16;;;;;;;26.23;16.93;;;;;;;-1.36;74.19;95988.53;5037654;28;20207;-76
2023/03/01 07:18:41;;;;;;;26.40;17.53;;;;;;;-1.44;74.12;95991.41;5010727;28;20198;-78
2023/03/01 07:21:08;;;;;;;31.20;19.40;;;;;;;-1.42;73.67;95987.88;5034097;28;20186;-77
2023/03/01 07:23:34;;;;;;;27.70;18.50;;;;;;;-1.36;73.17;95983.44;5032543;28;20214;-78
2023/03/01 07:26:00;;;;;;;44.87;24.80;;;;;;;-1.59;74.12;95979.28;5027920;28;20231;-78
2023/03/01 07:28:27;;;;;;;28.47;18.53;;;;;;;-1.57;74.39;95978.34;5016765;28;20218;-78
2023/03/01 07:30:52;;;;;;;26.90;17.90;;;;;;;-1.54;74.00;95980.75;5029218;28;20215;-76
2023/03/01 07:33:17;;;;;;;30.47;18.77;;;;;;;-1.64;74.23;95987.13;5012153;28;20217;-78
2023/03/01 07:35:43;;;;;;;30.60;18.80;;;;;;;-1.66;74.38;95988.09;5009154;28;20282;-77
2023/03/01 07:38:08;;;;;;;28.57;18.23;;;;;;;-1.63;73.95;95988.78;5028877;28;20210;-77
2023/03/01 07:40:34;;;;;;;30.03;19.00;;;;;;;-1.89;75.65;95992.41;5014338;28;20183;-77
2023/03/01 07:43:01;;;;;;;30.43;19.27;;;;;;;-1.70;74.92;95989.94;5040931;28;20196;-77
2023/03/01 07:45:26;;;;;;;30.57;18.70;;;;;;;-1.54;74.46;95985.88;5019257;28;20202;-78
2023/03/01 07:47:52;;;;;;;57.03;28.43;;;;;;;-1.57;74.44;95988.53;5029033;28;20718;-78
2023/03/01 07:50:18;;;;;;;32.20;19.80;;;;;;;-1.45;74.29;95987.19;5045853;28;20345;-78
2023/03/01 07:52:47;;;;;;;34.20;19.30;;;;;;;-1.68;74.57;95982.22;5034615;28;20228;-77
2023/03/01 07:55:13;;;;;;;34.50;19.57;;;;;;;-1.58;74.68;95986.91;5040005;28;20763;-77
2023/03/01 07:57:38;;;;;;;30.87;19.90;;;;;;;-1.48;74.38;95987.34;5018401;28;20194;-78
2023/03/01 08:00:05;;;;;;;27.60;18.57;;;;;;;-1.63;74.17;95982.88;5025504;28;20269;-76
2023/03/01 08:02:31;;;;;;;30.07;19.63;;;;;;;-1.38;73.66;95980.13;5036844;28;20188;-78
2023/03/01 08:04:56;;;;;;;29.27;18.83;;;;;;;-1.34;73.72;95974.00;5022166;28;20439;-78
2023/03/01 08:07:21;;;;;;;32.70;20.10;;;;;;;-1.35;72.89;95969.81;5021044;28;20271;-77
2023/03/01 08:09:46;;;;;;;30.33;19.33;;;;;;;-1.21;72.89;95972.59;5029643;28;20548;-78
2023/03/01 08:12:12;;;;;;;31.50;18.27;;;;;;;-1.24;72.72;95962.50;5044609;28;20204;-78
2023/03/01 08:14:37;;;;;;;27.30;17.83;;;;;;;-1.08;72.50;95960.97;5017223;28;20218;-76
2023/03/01 08:17:02;;;;;;;32.37;19.40;;;;;;;-1.01;72.18;95972.56;5012916;28;20211;-76
2023/03/01 08:19:29;;;;;;;28.87;18.10;;;;;;;-0.91;71.86;95971.25;5020874;28;20188;-78
2023/03/01 08:21:54;;;;;;;31.10;19.43;;;;;;;-1.04;72.24;95967.59;5035862;28;20214;-78
2023/03/01 08:24:19;;;;;;;31.90;18.93;;;;;;;-0.93;72.02;95978.16;5039411;28;20204;-77
2023/03/01 08:26:45;;;;;;;29.70;18.43;;;;;;;-0.98;71.18;95972.41;5033929;28;20180;-78
2023/03/01 08:29:10;;;;;;;30.40;19.17;;;;;;;-1.06;71.96;95971.09;5017444;28;20235;-78
2023/03/01 08:31:37;;;;;;;30.03;19.20;;;;;;;-0.93;72.26;95974.78;5038475;28;20208;-77
2023/03/01 08:34:07;;;;;;;28.37;18.63;;;;;;;-0.79;71.19;95971.63;5017744;28;20185;-77
2023/03/01 08:36:36;;;;;;;33.10;20.40;;;;;;;-0.91;71.68;95978.06;5028953;28;20186;-77
2023/03/01 08:39:02;;;;;;;28.43;18.77;;;;;;;-0.88;71.89;95973.69;5027977;28;20534;-78
2023/03/01 08:41:28;;;;;;;31.10;19.43;;;;;;;-0.75;71.41;95978.22;5033676;28;20186;-78
2023/03/01 08:43:58;;;;;;;29.77;20.07;;;;;;;-0.66;71.35;95978.63;5014953;28;20204;-76
2023/03/01 08:46:27;;;;;;;31.73;19.53;;;;;;;-0.63;70.81;95972.56;5034742;28;20190;-78
2023/03/01 08:48:52;;;;;;;30.83;18.90;;;;;;;-0.61;71.34;95970.78;5036201;28;20224;-78
2023/03/01 08:51:19;;;;;;;32.27;20.30;;;;;;;-0.46;70.36;95962.41;5031922;28;20209;-77
2023/03/01 08:53:44;;;;;;;30.80;18.90;;;;;;;-0.51;70.07;95959.25;5032854;28;20202;-77
2023/03/01 08:56:10;;;;;;;28.70;18.50;;;;;;;-0.37;69.96;95956.88;5037705;28;20266;-77
2023/03/01 08:58:36;;;;;;;30.80;18.93;;;;;;;-0.38;70.29;95952.69;5040608;28;20219;-78
2023/03/01 09:01:07;;;;;;;38.70;21.23;;;;;;;-0.49;70.51;95951.53;5040856;28;20658;-78
2023/03/01 09:03:32;;;;;;;31.60;19.83;;;;;;;-0.53;70.12;95947.44;5026907;28;20216;-77
2023/03/01 09:06:01;;;;;;;30.57;18.80;;;;;;;-0.47;70.16;95949.72;5033126;28;20262;-78
2023/03/01 09:08:27;;;;;;;29.50;19.77;;;;;;;-0.36;70.20;95952.59;5040446;28;20710;-77
2023/03/01 09:10:52;;;;;;;32.47;19.03;;;;;;;-0.36;69.48;95940.66;5015810;28;20189;-78
2023/03/01 09:13:18;;;;;;;29.00;19.23;;;;;;;-0.19;69.52;95950.09;5033895;28;20210;-78
2023/03/01 09:15:43;;;;;;;37.53;21.77;;;;;;;-0.25;69.77;95936.81;5023028;28;20220;-76
2023/03/01 09:18:08;;;;;;;32.70;20.40;;;;;;;-0.21;69.84;95939.13;5031341;28;20173;-78
2023/03/01 09:20:34;;;;;;;31.17;20.40;;;;;;;-0.10;69.13;95931.78;5033648;28;20190;-78
2023/03/01 09:22:59;;;;;;;33.47;21.20;;;;;;;0.12;68.80;95934.13;5038661;28;20191;-77
2023/03/01 09:25:24;;;;;;;32.93;21.13;;;;;;;0.31;68.86;95928.13;5052179;28;20209;-77
2023/03/01 09:27:53;;;;;;;32.20;20.67;;;;;;;0.42;67.76;95941.19;5019847;28;20660;-78
2023/03/01 09:30:19;;;;;;;31.43;20.20;;;;;;;0.46;68.04;95930.75;5035174;28;20210;-77
2023/03/01 09:32:44;;;;;;;35.30;21.43;;;;;;;0.50;67.08;95928.84;5022119;28;20202;-77
2023/03/01 09:35:10;;;;;;;28.17;19.53;;;;;;;0.67;66.40;95918.59;5035675;28;20217;-77
2023/03/01 09:37:44;;;;;;;32.27;19.13;;;;;;;0.68;66.34;95924.53;5032514;28;20214;-78
2023/03/01 09:40:15;;;;;;;32.30;21.73;;;;;;;0.69;66.26;95918.50;5019087;28;20186;-78
2023/03/01 09:42:48;;;;;;;30.33;18.77;;;;;;;0.83;65.58;95914.34;5021938;28;20194;-78
2023/03/01 09:45:24;;;;;;;31.83;19.93;;;;;;;0.63;65.81;95912.00;5031820;28;20210;-77
2023/03/01 09:47:49;;;;;;;31.13;19.80;;;;;;;0.97;66.01;95920.47;5023931;28;20225;-77
2023/03/01 09:50:17;;;;;;;28.20;19.03;;;;;;;0.73;65.44;95918.28;5045469;28;20190;-79
2023/03/01 09:52:46;;;;;;;28.57;19.20;;;;;;;0.90;65.62;95911.47;5027780;28;20232;-78
2023/03/01 09:55:15;;;;;;;31.33;19.63;;;;;;;1.00;65.76;95912.66;5042009;28;20227;-78
2023/03/01 09:57:56;;;;;;;28.17;19.30;;;;;;;0.85;64.74;95917.63;5045145;28;20560;-79
2023/03/01 10:00:39;;;;;;;24.10;18.60;;;;;;;1.10;64.75;95903.56;5013976;28;20220;-77
2023/03/01 10:03:23;;;;;;;30.30;19.73;;;;;;;1.30;64.04;95916.13;5032948;28;20261;-78
2023/03/01 10:06:04;;;;;;;30.37;19.80;;;;;;;1.41;63.79;95920.66;5034066;28;20205;-77
2023/03/01 10:08:38;;;;;;;30.93;19.53;;;;;;;1.46;63.23;95907.63;5038724;28;20194;-78
2023/03/01 10:11:06;;;;;;;28.63;19.33;;;;;;;1.63;62.99;95910.09;5034666;28;20194;-77
2023/03/01 10:13:48;;;;;;;30.80;18.93;;;;;;;1.51;63.18;95908.22;5040814;28;20271;-79
2023/03/01 10:16:40;;;;;;;28.63;18.20;;;;;;;1.46;62.72;95905.88;5036363;28;20278;-77
2023/03/01 10:19:06;;;;;;;32.17;18.90;;;;;;;1.45;62.68;95903.41;5055768;28;20541;-77
2023/03/01 10:21:43;;;;;;;30.60;19.20;;;;;;;1.40;63.67;95907.03;5024492;28;20375;-79
2023/03/01 10:24:12;;;;;;;30.37;19.33;;;;;;;1.39;62.80;95895.16;5007909;28;20549;-78
2023/03/01 10:26:48;;;;;;;32.13;20.00;;;;;;;1.38;62.93;95901.19;5029300;28;20205;-79
2023/03/01 10:29:14;;;;;;;30.73;20.43;;;;;;;1.59;63.37;95894.06;5033160;28;20680;-79
2023/03/01 10:31:57;;;;;;;28.93;19.33;;;;;;;1.70;62.59;95890.91;5042472;28;20205;-80
2023/03/01 10:34:34;;;;;;;27.67;18.40;;;;;;;1.87;61.76;95887.41;5025153;28;20228;-78
2023/03/01 10:37:09;;;;;;;26.70;18.03;;;;;;;2.02;60.63;95886.53;5011045;28;20281;-79
2023/03/01 10:39:35;;;;;;;29.87;19.07;;;;;;;1.86;61.25;95891.72;5021818;28;20190;-79
2023/03/01 10:42:07;;;;;;;27.37;18.47;;;;;;;1.74;61.17;95884.69;5005799;28;20249;-78
2023/03/01 10:44:37;;;;;;;28.80;19.17;;;;;;;2.03;60.40;95892.47;5020753;28;20260;-78
2023/03/01 10:47:02;;;;;;;28.57;19.93;;;;;;;2.01;60.09;95887.44;5021446;28;20231;-78
2023/03/01 10:49:27;;;;;;;26.50;18.90;;;;;;;2.23;60.79;95887.06;5025459;28;20257;-79
2023/03/01 10:51:53;;;;;;;29.87;19.53;;;;;;;2.27;59.44;95891.06;5021946;28;20210;-78
2023/03/01 10:54:29;;;;;;;30.30;18.67;;;;;;;2.16;59.89;95889.13;5024757;28;20214;-78
2023/03/01 10:57:03;;;;;;;26.60;18.00;;;;;;;2.13;59.25;95886.75;5007740;28;20721;-78
2023/03/01 10:59:34;;;;;;;31.57;18.93;;;;;;;2.25;59.20;95883.47;5012971;28;20190;-78
2023/03/01 11:02:17;;;;;;;29.13;18.70;;;;;;;2.27;59.59;95885.94;5019926;28;20195;-78
2023/03/01 11:04:59;;;;;;;25.43;17.73;;;;;;;2.38;59.56;95872.50;5010764;28;20213;-78
2023/03/01 11:07:24;;;;;;;29.23;18.03;;;;;;;2.40;59.00;95866.41;5004400;28;20252;-78
2023/03/01 11:09:49;;;;;;;27.77;18.23;;;;;;;2.57;59.04;95867.13;5018749;28;20191;-79
2023/03/01 11:12:16;;;;;;;25.67;18.27;;;;;;;2.50;58.63;95862.38;5006576;28;20214;-79
2023/03/01 11:14:50;;;;;;;30.20;19.20;;;;;;;2.77;58.46;95857.31;5019392;28;20506;-78
2023/03/01 11:17:22;;;;;;;30.63;19.23;;;;;;;2.72;57.73;95855.94;5030498;28;20245;-79
2023/03/01 11:20:19;;;;;;;28.30;19.33;;;;;;;2.72;57.89;95851.63;5009121;28;20568;-78
2023/03/01 11:22:47;;;;;;;30.50;18.83;;;;;;;2.19;58.36;95840.25;5018663;28;20955;-78